AEE136 LGAV-LGTS
Flight info
| Callsign | AEE136 |
|---|---|
| Flight time | 0h 35m |
| Altitude | 24000 |
| Route | KRO2E KRO G33 NEVRA Z507 OSMOS OSMOS1L |
| Aircraft | A20N/M-SDE3L/L |
Departure
| Time | 2026-05-05 20:34 |
|---|---|
| Airport | Athens Eleftherios Venizelos International Airport (LGAV) |
Arrival
| Time | 2026-05-05 21:10 |
|---|---|
| Airport | Thessaloniki Macedonia International Airport (LGTS) |
| Time | Latitude | Longitude | Altitude | Speed | Heading |
|---|---|---|---|---|---|
| 2026-05-05 19:54 | 37.93872 | 23.95081 | 300 ft | 0 kts | 307° |
| 2026-05-05 20:27 | 37.93867 | 23.95089 | 302 ft | 4 kts | 307° |
| 2026-05-05 20:28 | 37.93851 | 23.95116 | 302 ft | 4 kts | 307° |
| 2026-05-05 20:28 | 37.93838 | 23.95137 | 301 ft | 4 kts | 301° |
| 2026-05-05 20:28 | 37.93830 | 23.95168 | 300 ft | 4 kts | 256° |
| 2026-05-05 20:28 | 37.93839 | 23.95189 | 300 ft | 0 kts | 217° |
| 2026-05-05 20:31 | 37.93789 | 23.95140 | 300 ft | 20 kts | 217° |
| 2026-05-05 20:31 | 37.93717 | 23.95124 | 300 ft | 7 kts | 152° |
| 2026-05-05 20:31 | 37.93645 | 23.95222 | 298 ft | 19 kts | 144° |
| 2026-05-05 20:31 | 37.93565 | 23.95198 | 299 ft | 19 kts | 213° |
| 2026-05-05 20:32 | 37.93425 | 23.95068 | 298 ft | 31 kts | 218° |
| 2026-05-05 20:32 | 37.93224 | 23.94877 | 301 ft | 41 kts | 217° |
| 2026-05-05 20:32 | 37.92983 | 23.94651 | 300 ft | 43 kts | 217° |
| 2026-05-05 20:32 | 37.92758 | 23.94439 | 303 ft | 40 kts | 216° |
| 2026-05-05 20:33 | 37.92585 | 23.94289 | 303 ft | 17 kts | 180° |
| 2026-05-05 20:33 | 37.92494 | 23.94415 | 308 ft | 15 kts | 115° |
| 2026-05-05 20:33 | 37.92546 | 23.94507 | 306 ft | 26 kts | 30° |
| 2026-05-05 20:33 | 37.92906 | 23.94846 | 298 ft | 117 kts | 37° |
| 2026-05-05 20:34 | 37.93776 | 23.95657 | 612 ft | 175 kts | 36° |
| 2026-05-05 20:34 | 37.94790 | 23.96652 | 1576 ft | 196 kts | 37° |
| 2026-05-05 20:34 | 37.95903 | 23.97822 | 2610 ft | 221 kts | 39° |
| 2026-05-05 20:34 | 37.97125 | 23.99184 | 3779 ft | 245 kts | 38° |
| 2026-05-05 20:35 | 37.98678 | 24.00147 | 4982 ft | 256 kts | 11° |
| 2026-05-05 20:35 | 38.00451 | 24.00065 | 6412 ft | 259 kts | 347° |
| 2026-05-05 20:35 | 38.02192 | 23.99386 | 7818 ft | 263 kts | 344° |
| 2026-05-05 20:35 | 38.03964 | 23.98766 | 9259 ft | 266 kts | 347° |
| 2026-05-05 20:36 | 38.05753 | 23.98197 | 10593 ft | 273 kts | 347° |
| 2026-05-05 20:36 | 38.07681 | 23.97590 | 11390 ft | 298 kts | 347° |
| 2026-05-05 20:36 | 38.09768 | 23.96919 | 12111 ft | 321 kts | 346° |
| 2026-05-05 20:36 | 38.11966 | 23.96196 | 13205 ft | 329 kts | 346° |
| 2026-05-05 20:37 | 38.14200 | 23.95453 | 14352 ft | 334 kts | 345° |
| 2026-05-05 20:37 | 38.15693 | 23.94955 | 15122 ft | 336 kts | 345° |
| 2026-05-05 20:37 | 38.18750 | 23.93935 | 16597 ft | 342 kts | 344° |
| 2026-05-05 20:37 | 38.21062 | 23.93162 | 17709 ft | 346 kts | 344° |
| 2026-05-05 20:38 | 38.23408 | 23.92377 | 18713 ft | 351 kts | 343° |
| 2026-05-05 20:38 | 38.25774 | 23.91583 | 19682 ft | 354 kts | 343° |
| 2026-05-05 20:38 | 38.28169 | 23.90779 | 20631 ft | 358 kts | 343° |
| 2026-05-05 20:38 | 38.30588 | 23.89965 | 21558 ft | 362 kts | 343° |
| 2026-05-05 20:39 | 38.33033 | 23.89142 | 22454 ft | 366 kts | 343° |
| 2026-05-05 20:39 | 38.35515 | 23.88306 | 23365 ft | 370 kts | 343° |
| 2026-05-05 20:39 | 38.38027 | 23.87459 | 23861 ft | 374 kts | 343° |
| 2026-05-05 20:39 | 38.40542 | 23.86611 | 24020 ft | 374 kts | 343° |
| 2026-05-05 20:40 | 38.43066 | 23.85758 | 24067 ft | 375 kts | 343° |
| 2026-05-05 20:40 | 38.45588 | 23.84906 | 24065 ft | 374 kts | 343° |
| 2026-05-05 20:40 | 38.48115 | 23.84053 | 24066 ft | 375 kts | 343° |
| 2026-05-05 20:40 | 38.50598 | 23.83213 | 24067 ft | 375 kts | 343° |
| 2026-05-05 20:41 | 38.53123 | 23.82357 | 24058 ft | 375 kts | 343° |
| 2026-05-05 20:41 | 38.55650 | 23.81500 | 24060 ft | 375 kts | 343° |
| 2026-05-05 20:41 | 38.58168 | 23.80645 | 24059 ft | 375 kts | 343° |
| 2026-05-05 20:41 | 38.60693 | 23.79788 | 24061 ft | 375 kts | 343° |
| 2026-05-05 20:42 | 38.63221 | 23.78929 | 24053 ft | 375 kts | 343° |
| 2026-05-05 20:42 | 38.65741 | 23.78073 | 24055 ft | 375 kts | 342° |
| 2026-05-05 20:42 | 38.68261 | 23.77216 | 24058 ft | 375 kts | 343° |
| 2026-05-05 20:42 | 38.70784 | 23.76357 | 24056 ft | 375 kts | 343° |
| 2026-05-05 20:43 | 38.73309 | 23.75496 | 24054 ft | 375 kts | 343° |
| 2026-05-05 20:43 | 38.75831 | 23.74635 | 24056 ft | 375 kts | 343° |
| 2026-05-05 20:43 | 38.78354 | 23.73774 | 24051 ft | 375 kts | 342° |
| 2026-05-05 20:43 | 38.80034 | 23.73200 | 24052 ft | 375 kts | 343° |
| 2026-05-05 20:44 | 38.82560 | 23.72336 | 24051 ft | 375 kts | 343° |
| 2026-05-05 20:44 | 38.85089 | 23.71471 | 24050 ft | 376 kts | 343° |
| 2026-05-05 20:44 | 38.87612 | 23.70607 | 24050 ft | 376 kts | 343° |
| 2026-05-05 20:44 | 38.90138 | 23.69742 | 24051 ft | 380 kts | 343° |
| 2026-05-05 20:45 | 38.95568 | 23.67872 | 24047 ft | 426 kts | 343° |
| 2026-05-05 20:45 | 38.98499 | 23.66864 | 24045 ft | 444 kts | 343° |
| 2026-05-05 20:45 | 39.01533 | 23.65823 | 24047 ft | 454 kts | 343° |
| 2026-05-05 20:46 | 39.04477 | 23.64814 | 24043 ft | 455 kts | 343° |
| 2026-05-05 20:46 | 39.07575 | 23.63750 | 24042 ft | 455 kts | 343° |
| 2026-05-05 20:46 | 39.10595 | 23.62712 | 24043 ft | 456 kts | 343° |
| 2026-05-05 20:46 | 39.13656 | 23.61657 | 24042 ft | 456 kts | 343° |
| 2026-05-05 20:47 | 39.16726 | 23.60599 | 24041 ft | 456 kts | 343° |
| 2026-05-05 20:47 | 39.19791 | 23.59541 | 24043 ft | 456 kts | 343° |
| 2026-05-05 20:47 | 39.22839 | 23.58487 | 24043 ft | 457 kts | 343° |
| 2026-05-05 20:47 | 39.25900 | 23.57428 | 24037 ft | 456 kts | 343° |
| 2026-05-05 20:48 | 39.28969 | 23.56365 | 24041 ft | 457 kts | 343° |
| 2026-05-05 20:48 | 39.32044 | 23.55299 | 24035 ft | 457 kts | 343° |
| 2026-05-05 20:48 | 39.35112 | 23.54234 | 24038 ft | 457 kts | 343° |
| 2026-05-05 20:48 | 39.38182 | 23.53168 | 24038 ft | 457 kts | 343° |
| 2026-05-05 20:49 | 39.41254 | 23.52101 | 24037 ft | 457 kts | 343° |
| 2026-05-05 20:49 | 39.44322 | 23.51034 | 24040 ft | 458 kts | 343° |
| 2026-05-05 20:49 | 39.47398 | 23.49963 | 24038 ft | 458 kts | 343° |
| 2026-05-05 20:49 | 39.50472 | 23.48891 | 24035 ft | 458 kts | 343° |
| 2026-05-05 20:50 | 39.53509 | 23.47831 | 24036 ft | 458 kts | 343° |
| 2026-05-05 20:50 | 39.56585 | 23.46757 | 24036 ft | 458 kts | 343° |
| 2026-05-05 20:50 | 39.59668 | 23.45680 | 24033 ft | 458 kts | 343° |
| 2026-05-05 20:50 | 39.62745 | 23.44604 | 24034 ft | 458 kts | 343° |
| 2026-05-05 20:51 | 39.65826 | 23.43525 | 24034 ft | 458 kts | 343° |
| 2026-05-05 20:51 | 39.68892 | 23.42451 | 24031 ft | 459 kts | 343° |
| 2026-05-05 20:51 | 39.71995 | 23.41363 | 24032 ft | 459 kts | 343° |
| 2026-05-05 20:51 | 39.75080 | 23.40279 | 24031 ft | 459 kts | 343° |
| 2026-05-05 20:52 | 39.78163 | 23.39196 | 24032 ft | 459 kts | 343° |
| 2026-05-05 20:52 | 39.81246 | 23.38112 | 24033 ft | 460 kts | 343° |
| 2026-05-05 20:52 | 39.84333 | 23.37025 | 24033 ft | 460 kts | 343° |
| 2026-05-05 20:52 | 39.87425 | 23.35936 | 24035 ft | 460 kts | 343° |
| 2026-05-05 20:53 | 39.90519 | 23.34845 | 24034 ft | 460 kts | 343° |
| 2026-05-05 20:53 | 39.93613 | 23.33752 | 24036 ft | 461 kts | 343° |
| 2026-05-05 20:53 | 39.96708 | 23.32659 | 24033 ft | 461 kts | 343° |
| 2026-05-05 20:53 | 39.99805 | 23.31563 | 24033 ft | 461 kts | 343° |
| 2026-05-05 20:54 | 40.02835 | 23.30492 | 24034 ft | 436 kts | 343° |
| 2026-05-05 20:54 | 40.05668 | 23.29492 | 24031 ft | 407 kts | 343° |
| 2026-05-05 20:54 | 40.08280 | 23.28569 | 24033 ft | 382 kts | 343° |
| 2026-05-05 20:54 | 40.10849 | 23.27657 | 24038 ft | 381 kts | 343° |
| 2026-05-05 20:55 | 40.13374 | 23.26680 | 24036 ft | 382 kts | 339° |
| 2026-05-05 20:55 | 40.15818 | 23.25331 | 24035 ft | 381 kts | 333° |
| 2026-05-05 20:55 | 40.18125 | 23.23629 | 24035 ft | 381 kts | 328° |
| 2026-05-05 20:55 | 40.18391 | 23.23415 | 24034 ft | 381 kts | 328° |
| 2026-05-05 20:56 | 40.20279 | 23.21915 | 23973 ft | 379 kts | 328° |
| 2026-05-05 20:56 | 40.22535 | 23.20143 | 23576 ft | 377 kts | 328° |
| 2026-05-05 20:56 | 40.24779 | 23.18386 | 22851 ft | 375 kts | 329° |
| 2026-05-05 20:56 | 40.27015 | 23.16631 | 22076 ft | 372 kts | 329° |
| 2026-05-05 20:57 | 40.29224 | 23.14895 | 21282 ft | 369 kts | 329° |
| 2026-05-05 20:57 | 40.31412 | 23.13171 | 20532 ft | 366 kts | 329° |
| 2026-05-05 20:57 | 40.33536 | 23.11496 | 19805 ft | 363 kts | 329° |
| 2026-05-05 20:57 | 40.35743 | 23.09753 | 19062 ft | 360 kts | 329° |
| 2026-05-05 20:58 | 40.37844 | 23.08094 | 18376 ft | 358 kts | 329° |
| 2026-05-05 20:58 | 40.39941 | 23.06436 | 17500 ft | 352 kts | 329° |
| 2026-05-05 20:58 | 40.42036 | 23.04777 | 16393 ft | 349 kts | 329° |
| 2026-05-05 20:58 | 40.44103 | 23.03140 | 15344 ft | 346 kts | 329° |
| 2026-05-05 20:59 | 40.46153 | 23.01515 | 14349 ft | 343 kts | 329° |
| 2026-05-05 20:59 | 40.48184 | 22.99904 | 13326 ft | 340 kts | 329° |
| 2026-05-05 20:59 | 40.50204 | 22.98303 | 12385 ft | 339 kts | 329° |
| 2026-05-05 20:59 | 40.52208 | 22.96734 | 11601 ft | 332 kts | 332° |
| 2026-05-05 21:00 | 40.54210 | 22.95339 | 10652 ft | 329 kts | 333° |
| 2026-05-05 21:00 | 40.56217 | 22.93944 | 9984 ft | 320 kts | 333° |
| 2026-05-05 21:00 | 40.58136 | 22.92608 | 9793 ft | 303 kts | 332° |
| 2026-05-05 21:00 | 40.59930 | 22.91356 | 9511 ft | 283 kts | 332° |
| 2026-05-05 21:01 | 40.61652 | 22.90154 | 8868 ft | 278 kts | 332° |
| 2026-05-05 21:01 | 40.63353 | 22.88966 | 8172 ft | 275 kts | 332° |
| 2026-05-05 21:01 | 40.65041 | 22.87787 | 7515 ft | 273 kts | 332° |
| 2026-05-05 21:01 | 40.66702 | 22.86625 | 7028 ft | 264 kts | 332° |
| 2026-05-05 21:02 | 40.68273 | 22.85526 | 6749 ft | 250 kts | 332° |
| 2026-05-05 21:02 | 40.69784 | 22.84468 | 6113 ft | 246 kts | 332° |
| 2026-05-05 21:02 | 40.71276 | 22.83422 | 5411 ft | 247 kts | 332° |
| 2026-05-05 21:02 | 40.72793 | 22.82359 | 4734 ft | 246 kts | 331° |
| 2026-05-05 21:03 | 40.74307 | 22.81300 | 4018 ft | 247 kts | 332° |
| 2026-05-05 21:03 | 40.75967 | 22.80705 | 3334 ft | 250 kts | 360° |
| 2026-05-05 21:03 | 40.77624 | 22.81277 | 2802 ft | 248 kts | 32° |
| 2026-05-05 21:03 | 40.78809 | 22.82902 | 2666 ft | 248 kts | 64° |
| 2026-05-05 21:04 | 40.79196 | 22.85054 | 2631 ft | 241 kts | 95° |
| 2026-05-05 21:04 | 40.78701 | 22.87111 | 2580 ft | 237 kts | 126° |
| 2026-05-05 21:04 | 40.77530 | 22.88614 | 2564 ft | 234 kts | 148° |
| 2026-05-05 21:04 | 40.76079 | 22.89554 | 2555 ft | 233 kts | 161° |
| 2026-05-05 21:05 | 40.74531 | 22.90166 | 2557 ft | 232 kts | 167° |
| 2026-05-05 21:05 | 40.72935 | 22.90500 | 2551 ft | 234 kts | 174° |
| 2026-05-05 21:05 | 40.71326 | 22.90797 | 2554 ft | 232 kts | 170° |
| 2026-05-05 21:05 | 40.69748 | 22.91237 | 2554 ft | 231 kts | 167° |
| 2026-05-05 21:06 | 40.68186 | 22.91760 | 2557 ft | 232 kts | 167° |
| 2026-05-05 21:06 | 40.66655 | 22.92261 | 2558 ft | 232 kts | 167° |
| 2026-05-05 21:06 | 40.65106 | 22.92771 | 2454 ft | 225 kts | 167° |
| 2026-05-05 21:06 | 40.63598 | 22.93266 | 2152 ft | 220 kts | 166° |
| 2026-05-05 21:07 | 40.62131 | 22.93749 | 1866 ft | 215 kts | 166° |
| 2026-05-05 21:07 | 40.60693 | 22.94221 | 1573 ft | 210 kts | 166° |
| 2026-05-05 21:07 | 40.59334 | 22.94667 | 1324 ft | 187 kts | 166° |
| 2026-05-05 21:07 | 40.58192 | 22.95042 | 1100 ft | 152 kts | 165° |
| 2026-05-05 21:08 | 40.57247 | 22.95353 | 910 ft | 131 kts | 164° |
| 2026-05-05 21:08 | 40.56398 | 22.95630 | 736 ft | 124 kts | 163° |
| 2026-05-05 21:08 | 40.55554 | 22.95908 | 572 ft | 125 kts | 163° |
| 2026-05-05 21:08 | 40.54699 | 22.96204 | 391 ft | 126 kts | 161° |
| 2026-05-05 21:09 | 40.53869 | 22.96497 | 264 ft | 124 kts | 165° |
| 2026-05-05 21:09 | 40.53050 | 22.96756 | 68 ft | 120 kts | 164° |
| 2026-05-05 21:09 | 40.52236 | 22.97013 | 26 ft | 119 kts | 165° |
| 2026-05-05 21:09 | 40.51586 | 22.97229 | 27 ft | 60 kts | 160° |
| 2026-05-05 21:10 | 40.51515 | 22.97322 | 26 ft | 13 kts | 107° |
| 2026-05-05 21:10 | 40.51567 | 22.97398 | 30 ft | 16 kts | 7° |
| 2026-05-05 21:10 | 40.51728 | 22.97349 | 28 ft | 31 kts | 346° |
| 2026-05-05 21:10 | 40.51976 | 22.97282 | 24 ft | 36 kts | 348° |
| 2026-05-05 21:11 | 40.52238 | 22.97202 | 27 ft | 41 kts | 346° |
| 2026-05-05 21:11 | 40.52369 | 22.97214 | 29 ft | 15 kts | 59° |
| 2026-05-05 21:11 | 40.52378 | 22.97353 | 30 ft | 17 kts | 114° |
| 2026-05-05 21:11 | 40.52327 | 22.97446 | 25 ft | 0 kts | 132° |
| 2026-05-05 21:12 | 40.52310 | 22.97474 | 26 ft | 6 kts | 115° |
| 2026-05-05 21:12 | 40.52332 | 22.97536 | 28 ft | 9 kts | 49° |
| 2026-05-05 21:13 | 40.52337 | 22.97542 | 27 ft | 0 kts | 46° |